createdAt,value
2019-05-02T00:03:28.697Z,10.90
2019-05-02T00:08:29.347Z,10.90
2019-05-02T00:13:22.254Z,10.80
2019-05-02T00:18:18.604Z,10.60
2019-05-02T00:23:14.446Z,10.60
2019-05-02T00:28:12.391Z,10.50
2019-05-02T00:33:10.371Z,10.30
2019-05-02T00:38:04.868Z,10.10
2019-05-02T00:43:00.510Z,10.10
2019-05-02T00:48:19.252Z,10.10
2019-05-02T00:53:15.867Z,10.00
2019-05-02T00:58:11.563Z,9.80
2019-05-02T01:03:11.012Z,9.70
2019-05-02T01:08:04.807Z,9.70
2019-05-02T01:13:00.494Z,9.60
2019-05-02T01:17:56.205Z,9.60
2019-05-02T01:22:52.547Z,9.60
2019-05-02T01:28:17.546Z,9.50
2019-05-02T01:33:27.780Z,9.40
2019-05-02T01:38:31.975Z,9.30
2019-05-02T01:43:29.595Z,9.10
2019-05-02T01:48:25.884Z,9.00
2019-05-02T01:53:21.544Z,8.90
2019-05-02T01:58:20.738Z,8.90
2019-05-02T02:03:14.506Z,8.90
2019-05-02T02:08:10.245Z,8.80
2019-05-02T02:13:06.022Z,8.80
2019-05-02T02:18:01.678Z,8.60
2019-05-02T02:23:10.200Z,8.50
2019-05-02T02:28:05.512Z,8.40
2019-05-02T02:33:07.543Z,8.30
2019-05-02T02:37:58.402Z,8.20
2019-05-02T02:42:54.384Z,8.20
2019-05-02T02:47:57.522Z,8.20
2019-05-02T02:52:47.291Z,8.00
2019-05-02T02:57:43.213Z,7.90
2019-05-02T03:02:47.739Z,7.80
2019-05-02T03:07:36.308Z,7.70
2019-05-02T03:12:53.654Z,7.50
2019-05-02T03:17:49.443Z,7.40
2019-05-02T03:22:45.288Z,7.30
2019-05-02T03:27:41.072Z,7.30
2019-05-02T03:32:37.160Z,7.20
2019-05-02T03:37:44.741Z,7.30
2019-05-02T03:42:44.651Z,7.20
2019-05-02T03:47:43.911Z,7.10
2019-05-02T03:52:36.666Z,7.00
2019-05-02T03:57:36.114Z,6.90
2019-05-02T04:02:32.173Z,6.90
2019-05-02T04:07:39.910Z,6.80
2019-05-02T04:12:26.256Z,6.80
2019-05-02T04:17:28.892Z,6.80
2019-05-02T04:22:21.232Z,6.90
2019-05-02T04:27:17.433Z,7.00
2019-05-02T04:32:14.541Z,7.00
2019-05-02T04:37:10.450Z,7.10
2019-05-02T04:42:15.994Z,7.20
2019-05-02T04:47:11.180Z,7.30
2019-05-02T04:52:07.081Z,7.30
2019-05-02T04:57:02.188Z,7.40
2019-05-02T05:01:58.529Z,7.50
2019-05-02T05:06:58.214Z,7.70
2019-05-02T05:11:53.814Z,7.80
2019-05-02T05:16:53.810Z,7.90
2019-05-02T05:21:47.628Z,8.10
2019-05-02T05:26:44.300Z,8.30
2019-05-02T05:31:38.308Z,8.50
2019-05-02T05:36:34.971Z,8.80
2019-05-02T05:41:30.567Z,9.00
2019-05-02T05:46:27.969Z,9.30
2019-05-02T05:51:23.416Z,9.50
2019-05-02T05:56:19.059Z,9.80
2019-05-02T06:01:14.617Z,10.10
2019-05-02T06:06:14.823Z,10.20
2019-05-02T06:11:07.463Z,10.50
2019-05-02T06:16:03.530Z,10.80
2019-05-02T06:21:03.352Z,11.10
2019-05-02T06:25:56.672Z,11.30
2019-05-02T06:30:52.385Z,11.40
2019-05-02T06:35:52.233Z,11.60
2019-05-02T06:40:46.657Z,11.90
2019-05-02T06:45:42.412Z,12.20
2019-05-02T06:50:38.954Z,12.50
2019-05-02T06:55:36.581Z,12.80
2019-05-02T07:00:39.591Z,13.10
2019-05-02T07:05:29.971Z,13.50
2019-05-02T07:10:26.691Z,13.80
2019-05-02T07:15:48.616Z,14.10
2019-05-02T07:20:44.446Z,14.50
2019-05-02T07:25:43.995Z,14.90
2019-05-02T07:30:38.005Z,15.30
2019-05-02T07:35:33.734Z,15.50
2019-05-02T07:40:29.366Z,15.80
2019-05-02T07:45:25.075Z,16.00
2019-05-02T07:50:20.870Z,16.30
2019-05-02T07:55:16.476Z,16.50
2019-05-02T08:00:13.736Z,16.80
2019-05-02T08:05:09.712Z,17.10
2019-05-02T08:10:06.200Z,17.30
2019-05-02T08:15:02.048Z,17.60
2019-05-02T08:19:57.666Z,17.80
2019-05-02T08:24:53.352Z,17.90
2019-05-02T08:29:49.114Z,18.10
2019-05-02T08:34:46.291Z,18.30
2019-05-02T08:39:42.192Z,18.50
2019-05-02T08:44:50.278Z,18.60
2019-05-02T08:49:35.104Z,18.90
2019-05-02T08:54:32.819Z,19.10
2019-05-02T08:59:27.953Z,19.30
2019-05-02T09:04:24.218Z,19.50
2019-05-02T09:09:22.832Z,19.80
2019-05-02T09:14:18.004Z,20.00
2019-05-02T09:19:21.396Z,20.30
2019-05-02T09:24:15.855Z,20.50
2019-05-02T09:29:08.049Z,20.80
2019-05-02T09:34:04.267Z,21.00
2019-05-02T09:38:59.813Z,21.20
2019-05-02T09:43:55.348Z,21.40
2019-05-02T09:48:51.950Z,21.70
2019-05-02T09:53:47.604Z,21.90
2019-05-02T09:58:45.665Z,22.00
2019-05-02T10:03:42.314Z,22.30
2019-05-02T10:08:38.416Z,22.40
2019-05-02T10:13:35.304Z,22.70
2019-05-02T10:18:32.927Z,23.00
2019-05-02T10:23:28.260Z,23.30
2019-05-02T10:28:23.834Z,23.40
2019-05-02T10:33:19.392Z,23.60
2019-05-02T10:38:19.246Z,24.10
2019-05-02T10:43:12.308Z,24.30
2019-05-02T10:48:22.905Z,24.50
2019-05-02T10:53:11.873Z,24.70
2019-05-02T10:58:03.884Z,24.80
2019-05-02T11:03:24.604Z,24.80
2019-05-02T11:08:22.316Z,25.00
2019-05-02T11:13:34.865Z,25.10
2019-05-02T11:18:40.223Z,25.40
2019-05-02T11:23:29.421Z,25.70
2019-05-02T11:28:25.040Z,26.10
2019-05-02T11:33:22.854Z,26.20
2019-05-02T11:38:46.329Z,26.50
2019-05-02T11:43:15.308Z,26.90
2019-05-02T11:48:11.964Z,27.10
2019-05-02T11:53:22.265Z,27.20
2019-05-02T11:58:08.286Z,27.40
2019-05-02T12:03:17.251Z,27.30
2019-05-02T12:08:12.911Z,27.40
2019-05-02T12:13:11.881Z,27.90
2019-05-02T12:18:06.257Z,28.10
2019-05-02T12:23:02.103Z,27.60
2019-05-02T12:27:59.068Z,27.50
2019-05-02T12:32:54.741Z,27.70
2019-05-02T12:37:52.387Z,27.70
2019-05-02T12:42:48.036Z,28.30
2019-05-02T12:47:43.784Z,28.50
2019-05-02T12:52:39.401Z,28.30
2019-05-02T12:57:34.964Z,28.40
2019-05-02T13:02:47.766Z,28.60
2019-05-02T13:07:50.516Z,28.80
2019-05-02T13:12:41.955Z,29.00
2019-05-02T13:17:43.878Z,28.10
2019-05-02T13:22:48.521Z,27.00
2019-05-02T13:27:47.956Z,27.10
2019-05-02T13:32:48.109Z,28.00
2019-05-02T13:37:42.391Z,29.00
2019-05-02T13:42:38.116Z,29.40
2019-05-02T13:47:36.315Z,29.00
2019-05-02T13:52:33.237Z,27.90
2019-05-02T13:57:28.964Z,27.20
2019-05-02T14:02:39.352Z,26.60
2019-05-02T14:07:35.025Z,26.70
2019-05-02T14:12:52.733Z,27.50
2019-05-02T14:17:47.840Z,28.10
2019-05-02T14:22:43.480Z,28.10
2019-05-02T14:27:39.133Z,28.60
2019-05-02T14:32:34.791Z,28.10
2019-05-02T14:37:32.097Z,27.60
2019-05-02T14:42:27.860Z,27.10
2019-05-02T14:47:23.480Z,27.20
2019-05-02T14:52:19.096Z,28.50
2019-05-02T14:57:25.437Z,29.20
2019-05-02T15:02:44.984Z,29.90
2019-05-02T15:07:38.512Z,30.30
2019-05-02T15:12:34.580Z,30.30
2019-05-02T15:17:33.668Z,30.20
2019-05-02T15:22:27.516Z,30.50
2019-05-02T15:27:24.626Z,30.60
2019-05-02T15:32:32.520Z,29.40
2019-05-02T15:37:31.973Z,28.90
2019-05-02T15:42:27.443Z,28.10
2019-05-02T15:47:23.063Z,29.00
2019-05-02T15:52:24.224Z,29.10
2019-05-02T15:57:24.649Z,29.80
2019-05-02T16:02:22.962Z,28.30
2019-05-02T16:07:17.845Z,27.20
2019-05-02T16:12:13.644Z,27.20
2019-05-02T16:17:09.448Z,27.10
2019-05-02T16:22:12.217Z,26.80
2019-05-02T16:27:07.950Z,26.60
2019-05-02T16:32:35.687Z,26.60
2019-05-02T16:37:32.573Z,26.70
2019-05-02T16:42:28.501Z,26.20
2019-05-02T16:47:24.348Z,25.50
2019-05-02T16:52:22.339Z,25.20
2019-05-02T16:57:22.319Z,25.00
2019-05-02T17:02:15.260Z,25.20
2019-05-02T17:07:16.765Z,26.50
2019-05-02T17:12:15.269Z,26.70
2019-05-02T17:17:12.247Z,25.50
2019-05-02T17:22:08.085Z,24.60
2019-05-02T17:27:04.713Z,24.30
2019-05-02T17:32:02.066Z,24.10
2019-05-02T17:36:59.281Z,24.40
2019-05-02T17:41:54.905Z,23.80
2019-05-02T17:46:58.433Z,22.70
2019-05-02T17:52:11.325Z,21.80
2019-05-02T17:57:06.034Z,21.70
2019-05-02T18:02:01.939Z,21.50
2019-05-02T18:06:57.723Z,21.20
2019-05-02T18:11:53.880Z,21.00
2019-05-02T18:16:51.921Z,20.70
2019-05-02T18:21:47.884Z,20.50
2019-05-02T18:26:43.816Z,20.30
2019-05-02T18:31:47.398Z,20.20
2019-05-02T18:36:38.936Z,20.10
2019-05-02T18:41:37.422Z,20.00
2019-05-02T18:46:36.785Z,19.80
2019-05-02T18:51:32.102Z,19.70
2019-05-02T18:56:28.069Z,19.60
2019-05-02T19:01:23.930Z,19.50
2019-05-02T19:06:21.877Z,19.50
2019-05-02T19:11:17.085Z,19.40
2019-05-02T19:16:13.046Z,19.40
2019-05-02T19:21:09.015Z,19.30
2019-05-02T19:26:10.707Z,19.20
2019-05-02T19:31:06.891Z,19.10
2019-05-02T19:36:02.789Z,19.00
2019-05-02T19:41:05.496Z,18.90
2019-05-02T19:45:57.038Z,18.80
2019-05-02T19:50:52.945Z,18.70
2019-05-02T19:55:51.870Z,18.60
2019-05-02T20:00:47.645Z,18.50
2019-05-02T20:05:43.582Z,18.40
2019-05-02T20:10:42.356Z,18.20
2019-05-02T20:15:42.203Z,18.10
2019-05-02T20:21:02.485Z,18.00
2019-05-02T20:25:58.161Z,17.90
2019-05-02T20:30:55.524Z,17.80
2019-05-02T20:35:52.877Z,17.80
2019-05-02T20:40:48.688Z,17.70
2019-05-02T20:45:46.141Z,17.60
2019-05-02T20:50:42.416Z,17.50
2019-05-02T20:55:38.440Z,17.50
2019-05-02T21:00:34.720Z,17.40
2019-05-02T21:05:39.822Z,17.30
2019-05-02T21:10:38.313Z,17.30
2019-05-02T21:15:35.045Z,17.30
2019-05-02T21:20:32.530Z,17.30
2019-05-02T21:25:28.361Z,17.20
2019-05-02T21:30:25.765Z,17.20
2019-05-02T21:35:22.349Z,17.10
2019-05-02T21:40:18.242Z,17.10
2019-05-02T21:45:14.397Z,17.10
2019-05-02T21:50:32.219Z,17.10
2019-05-02T21:55:49.884Z,17.10
2019-05-02T22:00:59.305Z,17.10
2019-05-02T22:05:57.132Z,17.10
2019-05-02T22:10:52.759Z,17.10
2019-05-02T22:15:48.388Z,17.10
2019-05-02T22:20:44.019Z,17.00
2019-05-02T22:25:41.981Z,17.00
2019-05-02T22:30:37.776Z,16.90
2019-05-02T22:35:33.390Z,16.80
2019-05-02T22:40:29.048Z,16.90
2019-05-02T22:45:24.741Z,16.90
2019-05-02T22:50:22.047Z,16.90
2019-05-02T22:55:17.698Z,16.80
2019-05-02T23:00:13.572Z,16.90
2019-05-02T23:05:09.284Z,16.90
2019-05-02T23:10:05.396Z,16.90
2019-05-02T23:15:01.963Z,16.90
2019-05-02T23:19:57.733Z,16.90
2019-05-02T23:25:08.157Z,16.90
2019-05-02T23:30:04.352Z,17.00
2019-05-02T23:35:01.441Z,17.00
2019-05-02T23:39:57.293Z,17.00
2019-05-02T23:44:52.946Z,17.10
2019-05-02T23:49:46.781Z,17.10
2019-05-02T23:54:49.916Z,17.10
2019-05-02T23:59:36.313Z,17.10
